Time;durP1;ratioP1;P1;durP2;ratioP2;P2;SDS_P1;SDS_P2;PMS_P1;PMS_P2;Temp;Humidity;BMP_temperature;BMP_pressure;BME280_temperature;BME280_humidity;BME280_pressure;Samples;Min_cycle;Max_cycle;Signal;HPM_P1;HPM_P2
2024/04/13 00:00:14;;;;;;;2.37;1.80;;;23.40;53.30;;;;;;5430107;26;20232;-70
2024/04/13 00:02:43;;;;;;;2.03;1.83;;;23.40;53.30;;;;;;5429192;26;20446;-70
2024/04/13 00:05:09;;;;;;;3.27;2.00;;;23.40;53.30;;;;;;5429251;26;20457;-69
2024/04/13 00:07:35;;;;;;;2.53;2.13;;;23.40;53.30;;;;;;5428802;26;20853;-69
2024/04/13 00:10:03;;;;;;;3.07;2.00;;;23.40;53.30;;;;;;5426298;26;20597;-69
2024/04/13 00:12:29;;;;;;;2.77;2.00;;;23.40;53.90;;;;;;5428929;26;20522;-69
2024/04/13 00:14:54;;;;;;;2.33;1.80;;;23.40;53.40;;;;;;5429636;26;20534;-69
2024/04/13 00:17:21;;;;;;;2.57;2.00;;;23.40;53.30;;;;;;5429934;26;20224;-70
2024/04/13 00:19:49;;;;;;;2.90;2.10;;;23.40;53.40;;;;;;5428738;26;20329;-69
2024/04/13 00:22:18;;;;;;;2.20;1.80;;;23.40;53.40;;;;;;5429516;26;20520;-69
2024/04/13 00:24:45;;;;;;;2.30;1.63;;;23.40;53.40;;;;;;5430034;26;20556;-68
2024/04/13 00:27:11;;;;;;;2.50;1.77;;;23.40;53.40;;;;;;5429090;26;20455;-70
2024/04/13 00:29:37;;;;;;;2.73;1.87;;;23.40;53.40;;;;;;5429249;26;20453;-71
2024/04/13 00:32:03;;;;;;;1.90;1.57;;;23.40;53.40;;;;;;5429177;26;20470;-70
2024/04/13 00:34:29;;;;;;;2.00;1.70;;;23.40;53.40;;;;;;5428886;26;20458;-69
2024/04/13 00:36:54;;;;;;;1.87;1.60;;;23.40;53.40;;;;;;5429242;26;20499;-69
2024/04/13 00:39:20;;;;;;;2.93;2.10;;;23.40;53.40;;;;;;5427846;26;20217;-70
2024/04/13 00:41:46;;;;;;;2.23;2.03;;;23.40;53.40;;;;;;5428691;26;20282;-68
2024/04/13 00:44:12;;;;;;;1.90;1.70;;;23.40;53.40;;;;;;5428375;26;20300;-69
2024/04/13 00:46:42;;;;;;;2.23;1.83;;;23.40;53.40;;;;;;5427693;26;20451;-70
2024/04/13 00:49:13;;;;;;;2.27;1.57;;;23.40;53.40;;;;;;5428491;26;20220;-69
2024/04/13 00:51:45;;;;;;;2.17;1.70;;;23.40;53.40;;;;;;5428451;26;20462;-69
2024/04/13 00:54:18;;;;;;;2.30;1.60;;;23.40;53.40;;;;;;5428422;26;20442;-68
2024/04/13 00:56:46;;;;;;;2.70;1.93;;;23.40;53.40;;;;;;5428599;26;20450;-69
2024/04/13 00:59:12;;;;;;;2.10;1.50;;;23.40;53.40;;;;;;5426947;26;20447;-69
2024/04/13 01:01:38;;;;;;;2.70;1.80;;;23.40;53.40;;;;;;5427990;26;20469;-69
2024/04/13 01:04:04;;;;;;;2.83;1.67;;;23.40;53.50;;;;;;5428314;26;20220;-69
2024/04/13 01:06:32;;;;;;;2.03;1.50;;;23.40;53.50;;;;;;5428570;26;20289;-69
2024/04/13 01:08:59;;;;;;;2.10;1.80;;;23.40;53.50;;;;;;5427699;26;20454;-68
2024/04/13 01:11:26;;;;;;;2.43;1.70;;;23.40;53.50;;;;;;5427935;26;20507;-70
2024/04/13 01:13:54;;;;;;;2.43;1.53;;;23.40;53.50;;;;;;5428064;26;20510;-68
2024/04/13 01:16:29;;;;;;;1.87;1.73;;;23.40;53.40;;;;;;5429185;26;20450;-70
2024/04/13 01:18:56;;;;;;;3.53;1.80;;;23.40;53.50;;;;;;5429340;26;20490;-68
2024/04/13 01:21:21;;;;;;;2.60;1.93;;;23.40;53.50;;;;;;5428691;26;20539;-68
2024/04/13 01:23:57;;;;;;;2.00;1.63;;;23.40;53.50;;;;;;5429674;26;20446;-69
2024/04/13 01:26:23;;;;;;;1.93;1.57;;;23.40;53.50;;;;;;5428857;26;20224;-70
2024/04/13 01:28:48;;;;;;;2.67;1.60;;;23.40;53.50;;;;;;5428429;26;20533;-69
2024/04/13 01:31:14;;;;;;;1.90;1.60;;;23.40;53.50;;;;;;5427264;26;20588;-69
2024/04/13 01:33:40;;;;;;;3.00;1.83;;;23.40;53.50;;;;;;5396100;26;20224;-70
2024/04/13 01:36:06;;;;;;;2.97;1.70;;;23.40;53.50;;;;;;5427228;26;21008;-70
2024/04/13 01:38:32;;;;;;;2.07;1.53;;;23.40;53.50;;;;;;5427834;26;20221;-71
2024/04/13 01:40:58;;;;;;;1.90;1.70;;;23.30;53.40;;;;;;5427344;26;20236;-69
2024/04/13 01:43:23;;;;;;;1.90;1.20;;;23.40;53.50;;;;;;5427212;26;20510;-69
2024/04/13 01:45:50;;;;;;;2.00;1.80;;;23.40;53.50;;;;;;5426484;26;20265;-69
2024/04/13 01:48:17;;;;;;;2.70;1.93;;;23.40;53.50;;;;;;5427986;26;20236;-69
2024/04/13 01:50:43;;;;;;;1.97;1.67;;;23.40;53.50;;;;;;5427825;26;20466;-70
2024/04/13 01:53:09;;;;;;;2.17;1.73;;;23.40;53.50;;;;;;5428466;26;20505;-70
2024/04/13 01:55:34;;;;;;;2.03;1.80;;;23.30;53.40;;;;;;5427649;26;20224;-70
2024/04/13 01:58:00;;;;;;;1.60;1.50;;;23.30;53.40;;;;;;5433171;26;20266;-69
2024/04/13 02:00:25;;;;;;;1.80;1.60;;;23.40;53.50;;;;;;5463111;26;20219;-70
2024/04/13 02:02:52;;;;;;;2.03;1.80;;;23.40;53.50;;;;;;5462879;26;20219;-70
2024/04/13 02:05:17;;;;;;;2.70;1.97;;;23.40;53.50;;;;;;5462741;26;20265;-68
2024/04/13 02:07:43;;;;;;;2.20;1.60;;;23.30;53.40;;;;;;5463841;26;20436;-69
2024/04/13 02:10:10;;;;;;;1.67;1.50;;;23.30;53.40;;;;;;5463560;26;20223;-70
2024/04/13 02:12:35;;;;;;;1.50;1.30;;;23.30;53.40;;;;;;5464044;26;20326;-70
2024/04/13 02:15:01;;;;;;;1.73;1.50;;;23.40;53.50;;;;;;5464613;26;20452;-69
2024/04/13 02:17:27;;;;;;;1.60;1.40;;;23.40;53.50;;;;;;5463326;26;20273;-70
2024/04/13 02:19:52;;;;;;;2.07;1.73;;;23.30;53.40;;;;;;5463401;26;20232;-70
2024/04/13 02:22:21;;;;;;;1.80;1.63;;;23.30;53.40;;;;;;5462871;26;20239;-69
2024/04/13 02:24:47;;;;;;;1.90;1.70;;;23.40;53.50;;;;;;5462853;26;20227;-70
2024/04/13 02:27:13;;;;;;;2.30;1.80;;;23.30;53.40;;;;;;5463086;26;20492;-70
2024/04/13 02:29:43;;;;;;;2.77;1.80;;;23.30;54.10;;;;;;5461856;26;20227;-69
2024/04/13 02:32:09;;;;;;;2.03;1.63;;;23.40;53.50;;;;;;5461754;26;20239;-67
2024/04/13 02:34:35;;;;;;;2.00;1.73;;;23.30;53.50;;;;;;5463809;26;20540;-70
2024/04/13 02:37:02;;;;;;;2.10;1.50;;;23.30;53.40;;;;;;5462984;26;20465;-70
2024/04/13 02:39:28;;;;;;;2.50;1.57;;;23.30;53.40;;;;;;5462084;26;20262;-70
2024/04/13 02:41:54;;;;;;;1.67;1.57;;;23.30;53.40;;;;;;5462215;26;20464;-69
2024/04/13 02:44:19;;;;;;;2.10;1.90;;;23.30;53.50;;;;;;5462635;26;20227;-69
2024/04/13 02:46:45;;;;;;;3.40;1.60;;;23.30;53.50;;;;;;5462404;26;20570;-70
2024/04/13 02:49:10;;;;;;;1.90;1.57;;;23.30;53.50;;;;;;5462715;26;20228;-69
2024/04/13 02:51:36;;;;;;;2.03;1.60;;;23.30;53.40;;;;;;5462792;26;20343;-69
2024/04/13 02:54:02;;;;;;;2.43;1.67;;;23.30;53.50;;;;;;5462490;26;20224;-69
2024/04/13 02:56:28;;;;;;;1.47;1.30;;;23.30;53.50;;;;;;5462849;26;20279;-70
2024/04/13 02:58:54;;;;;;;1.80;1.50;;;23.30;53.50;;;;;;5462772;26;20452;-68
2024/04/13 03:01:19;;;;;;;2.80;1.37;;;23.30;53.50;;;;;;5461521;26;20251;-70
2024/04/13 03:03:45;;;;;;;1.53;1.37;;;23.40;53.50;;;;;;5460594;26;20310;-70
2024/04/13 03:06:13;;;;;;;2.10;1.70;;;23.30;53.50;;;;;;5461268;26;20231;-70
2024/04/13 03:08:39;;;;;;;1.97;1.50;;;23.30;53.50;;;;;;5460778;26;20653;-69
2024/04/13 03:11:08;;;;;;;1.97;1.20;;;23.30;53.50;;;;;;5489887;26;20481;-69
2024/04/13 03:13:34;;;;;;;2.00;1.57;;;23.30;53.50;;;;;;5460987;26;20539;-69
2024/04/13 03:16:08;;;;;;;1.87;1.43;;;23.30;53.50;;;;;;5461319;26;20460;-69
2024/04/13 03:18:38;;;;;;;2.60;2.40;;;23.30;53.50;;;;;;5461764;26;20440;-69
2024/04/13 03:21:04;;;;;;;2.13;1.37;;;23.30;53.50;;;;;;5461475;26;20468;-68
2024/04/13 03:23:32;;;;;;;1.97;1.57;;;23.30;53.50;;;;;;5462216;26;20453;-69
2024/04/13 03:25:58;;;;;;;1.77;1.40;;;23.30;53.50;;;;;;5460725;26;20504;-69
2024/04/13 03:28:34;;;;;;;2.87;1.50;;;23.30;53.50;;;;;;5460096;26;20476;-70
2024/04/13 03:31:01;;;;;;;1.67;1.43;;;23.30;53.50;;;;;;5460380;26;21089;-70
2024/04/13 03:33:26;;;;;;;1.77;1.53;;;23.30;53.50;;;;;;5460046;26;20574;-69
2024/04/13 03:35:52;;;;;;;2.07;1.37;;;23.30;53.50;;;;;;5459455;26;20452;-69
2024/04/13 03:38:18;;;;;;;2.43;1.53;;;23.30;53.50;;;;;;5460369;26;20266;-70
2024/04/13 03:40:47;;;;;;;1.80;1.50;;;23.30;53.50;;;;;;5459651;26;20235;-70
2024/04/13 03:43:14;;;;;;;1.33;1.10;;;23.30;53.50;;;;;;5460298;26;20232;-68
2024/04/13 03:45:40;;;;;;;1.70;1.40;;;23.30;53.50;;;;;;5463499;26;20547;-69
2024/04/13 03:48:06;;;;;;;2.03;1.70;;;23.30;53.50;;;;;;5462977;26;20438;-69
2024/04/13 03:50:39;;;;;;;2.03;1.50;;;23.30;53.50;;;;;;5463499;26;20590;-69
2024/04/13 03:53:04;;;;;;;2.93;1.67;;;23.40;53.60;;;;;;5463395;26;20328;-69
2024/04/13 03:55:30;;;;;;;2.33;1.50;;;23.30;53.50;;;;;;5463230;26;20460;-69
2024/04/13 03:57:55;;;;;;;2.00;1.80;;;23.30;53.50;;;;;;5463854;26;20223;-69
2024/04/13 04:00:21;;;;;;;1.93;1.47;;;23.30;53.50;;;;;;5464031;26;20227;-69
2024/04/13 04:02:46;;;;;;;1.57;1.37;;;23.30;53.50;;;;;;5463071;26;20220;-69
2024/04/13 04:05:12;;;;;;;1.70;1.47;;;23.30;53.50;;;;;;5463291;26;20262;-69
2024/04/13 04:07:38;;;;;;;1.93;1.73;;;23.30;53.50;;;;;;5462860;26;20273;-69
2024/04/13 04:10:05;;;;;;;1.50;1.40;;;23.30;53.50;;;;;;5462902;26;20223;-69
2024/04/13 04:12:30;;;;;;;1.67;1.37;;;23.30;53.50;;;;;;5463087;26;20231;-69
2024/04/13 04:14:56;;;;;;;1.63;1.40;;;23.30;53.50;;;;;;5463167;26;20441;-69
2024/04/13 04:17:22;;;;;;;1.30;1.20;;;23.30;53.50;;;;;;5463334;26;20227;-69
2024/04/13 04:19:47;;;;;;;2.37;1.50;;;23.30;53.50;;;;;;5463115;26;20211;-70
2024/04/13 04:22:13;;;;;;;1.93;1.60;;;23.30;53.50;;;;;;5491971;26;20239;-69
2024/04/13 04:24:38;;;;;;;2.10;1.90;;;23.30;53.50;;;;;;5462689;26;20847;-69
2024/04/13 04:27:05;;;;;;;1.83;1.40;;;23.30;53.50;;;;;;5461747;26;20262;-69
2024/04/13 04:29:34;;;;;;;2.23;1.67;;;23.30;53.50;;;;;;5462658;26;20223;-69
2024/04/13 04:32:00;;;;;;;2.17;1.60;;;23.30;53.50;;;;;;5462669;26;20465;-68
2024/04/13 04:34:26;;;;;;;2.07;1.67;;;23.30;53.50;;;;;;5463394;26;20513;-69
2024/04/13 04:36:51;;;;;;;1.87;1.60;;;23.30;53.50;;;;;;5463350;26;20454;-70
2024/04/13 04:39:17;;;;;;;2.67;1.73;;;23.30;53.50;;;;;;5463356;26;20288;-70
2024/04/13 04:41:44;;;;;;;1.40;1.20;;;23.30;53.50;;;;;;5463420;26;20239;-70
2024/04/13 04:44:10;;;;;;;1.97;1.53;;;23.30;53.50;;;;;;5463736;26;20461;-69
2024/04/13 04:46:35;;;;;;;2.20;1.60;;;23.30;53.50;;;;;;5462343;26;20511;-70
2024/04/13 04:49:03;;;;;;;1.50;1.27;;;23.30;53.50;;;;;;5463423;26;20452;-69
2024/04/13 04:51:29;;;;;;;1.80;1.67;;;23.30;53.50;;;;;;5462558;26;20278;-70
2024/04/13 04:53:55;;;;;;;2.60;1.70;;;23.30;53.50;;;;;;5461854;26;20963;-70
2024/04/13 04:56:21;;;;;;;2.80;2.00;;;23.30;53.60;;;;;;5462082;26;20223;-69
2024/04/13 04:58:46;;;;;;;1.60;1.30;;;23.30;53.60;;;;;;5464073;26;20227;-69
2024/04/13 05:01:12;;;;;;;2.13;1.93;;;23.30;53.60;;;;;;5462926;26;20231;-70
2024/04/13 05:03:38;;;;;;;2.10;1.20;;;23.30;53.60;;;;;;5454650;26;20223;-69
2024/04/13 05:06:05;;;;;;;1.47;1.00;;;23.30;53.60;;;;;;5454138;26;20748;-69
2024/04/13 05:08:30;;;;;;;2.13;1.53;;;23.30;53.60;;;;;;5459604;26;20302;-69
2024/04/13 05:10:57;;;;;;;1.83;1.50;;;23.30;53.60;;;;;;5457163;26;21075;-69
2024/04/13 05:13:23;;;;;;;1.73;1.53;;;23.30;53.60;;;;;;5454779;26;20270;-69
2024/04/13 05:15:48;;;;;;;1.53;1.13;;;23.30;53.60;;;;;;5456126;26;20499;-69
2024/04/13 05:18:14;;;;;;;1.60;1.30;;;23.30;53.60;;;;;;5454636;26;20223;-69
2024/04/13 05:20:40;;;;;;;1.60;1.40;;;23.30;53.60;;;;;;5454460;26;20313;-69
2024/04/13 05:23:05;;;;;;;2.40;1.70;;;23.40;53.60;;;;;;5481961;26;21188;-68
2024/04/13 05:25:31;;;;;;;2.03;1.40;;;23.40;53.60;;;;;;5454548;26;20219;-69
2024/04/13 05:27:57;;;;;;;2.30;1.60;;;23.40;53.70;;;;;;5482908;26;20250;-70
2024/04/13 05:30:23;;;;;;;2.17;1.43;;;23.40;53.70;;;;;;5453831;26;20974;-68
2024/04/13 05:32:49;;;;;;;1.60;1.10;;;23.40;53.70;;;;;;5455997;26;20223;-69
2024/04/13 05:35:18;;;;;;;1.53;1.20;;;23.40;53.70;;;;;;5456003;26;21008;-68
2024/04/13 05:37:44;;;;;;;1.90;1.70;;;23.40;53.70;;;;;;5457181;26;20258;-70
2024/04/13 05:40:12;;;;;;;1.97;1.30;;;23.50;53.70;;;;;;5456746;26;20461;-68
2024/04/13 05:42:38;;;;;;;1.87;1.50;;;23.50;53.80;;;;;;5455519;26;20457;-69
2024/04/13 05:45:04;;;;;;;1.37;1.20;;;23.50;53.70;;;;;;5453799;26;20537;-69
2024/04/13 05:47:30;;;;;;;2.20;1.60;;;23.50;53.80;;;;;;5455634;26;20332;-69
2024/04/13 05:49:55;;;;;;;2.07;1.43;;;23.50;53.70;;;;;;5456002;26;20277;-69
2024/04/13 05:52:21;;;;;;;1.73;1.20;;;23.50;53.70;;;;;;5455865;26;20265;-70
2024/04/13 05:54:46;;;;;;;1.97;1.50;;;23.50;53.70;;;;;;5455644;26;20713;-69
2024/04/13 05:57:12;;;;;;;2.53;1.70;;;23.50;53.70;;;;;;5486054;26;20227;-69
2024/04/13 05:59:38;;;;;;;1.50;1.20;;;23.50;53.70;;;;;;5455667;26;20231;-70
2024/04/13 06:02:04;;;;;;;1.90;1.40;;;23.60;53.80;;;;;;5456634;26;20235;-69
2024/04/13 06:04:30;;;;;;;1.87;1.23;;;23.60;53.80;;;;;;5457471;26;20535;-69
2024/04/13 06:06:55;;;;;;;3.47;1.27;;;23.60;53.80;;;;;;5454386;26;20299;-68
2024/04/13 06:09:21;;;;;;;2.40;1.60;;;23.60;53.80;;;;;;5455433;26;20223;-70
2024/04/13 06:11:46;;;;;;;1.70;1.40;;;23.60;53.70;;;;;;5455035;26;20270;-70
2024/04/13 06:14:12;;;;;;;2.23;1.57;;;23.60;53.70;;;;;;5455007;26;20219;-68
2024/04/13 06:16:37;;;;;;;1.73;1.20;;;23.60;53.70;;;;;;5455224;26;20219;-68
2024/04/13 06:19:03;;;;;;;1.70;1.43;;;23.60;53.80;;;;;;5458819;26;20332;-69
2024/04/13 06:21:29;;;;;;;2.23;1.33;;;23.60;53.80;;;;;;5457646;26;20235;-69
2024/04/13 06:23:54;;;;;;;1.53;1.30;;;23.70;53.80;;;;;;5456743;26;20301;-69
2024/04/13 06:26:20;;;;;;;1.90;1.30;;;23.70;53.80;;;;;;5458107;26;20266;-69
2024/04/13 06:28:46;;;;;;;1.57;1.47;;;23.70;53.80;;;;;;5458724;26;20269;-69
2024/04/13 06:31:11;;;;;;;1.60;1.40;;;23.70;53.80;;;;;;5458914;26;20257;-69
2024/04/13 06:33:37;;;;;;;2.20;1.60;;;23.70;53.80;;;;;;5459502;26;20235;-70
2024/04/13 06:36:02;;;;;;;1.47;1.30;;;23.70;53.80;;;;;;5458873;26;20224;-69
2024/04/13 06:38:29;;;;;;;1.60;1.43;;;23.70;53.70;;;;;;5456567;26;20316;-70
2024/04/13 06:40:55;;;;;;;2.07;1.30;;;23.80;53.80;;;;;;5456801;26;20278;-69
2024/04/13 06:43:22;;;;;;;1.63;1.13;;;23.70;53.70;;;;;;5457145;26;20889;-69
2024/04/13 06:45:48;;;;;;;1.37;1.07;;;23.70;53.70;;;;;;5457702;26;20227;-69
2024/04/13 06:48:13;;;;;;;2.77;1.67;;;23.70;53.70;;;;;;5457711;26;20449;-69
2024/04/13 06:50:40;;;;;;;1.80;1.30;;;23.70;53.70;;;;;;5457428;26;20464;-69
2024/04/13 06:53:05;;;;;;;1.87;1.40;;;23.80;53.80;;;;;;5457633;26;20270;-68
2024/04/13 06:55:31;;;;;;;1.50;1.03;;;23.80;53.70;;;;;;5457902;26;20437;-69
2024/04/13 06:57:57;;;;;;;1.70;1.10;;;23.80;53.70;;;;;;5459114;26;20223;-69
2024/04/13 07:00:22;;;;;;;2.03;1.47;;;23.80;53.70;;;;;;5457846;26;20364;-69
2024/04/13 07:02:48;;;;;;;1.80;1.50;;;23.80;53.70;;;;;;5458138;26;20308;-67
2024/04/13 07:05:14;;;;;;;1.70;1.60;;;23.80;53.70;;;;;;5457843;26;20269;-67
2024/04/13 07:07:39;;;;;;;1.40;1.23;;;23.80;53.70;;;;;;5457720;26;20227;-67
2024/04/13 07:10:06;;;;;;;2.63;1.60;;;23.80;53.70;;;;;;5457806;26;20544;-68
2024/04/13 07:12:32;;;;;;;1.87;1.57;;;23.80;53.70;;;;;;5456347;26;20339;-68
2024/04/13 07:14:58;;;;;;;1.90;1.50;;;23.70;53.70;;;;;;5457615;26;20452;-69
2024/04/13 07:17:24;;;;;;;1.63;1.53;;;23.80;53.70;;;;;;5457528;26;20275;-69
2024/04/13 07:19:50;;;;;;;2.87;1.50;;;23.80;53.70;;;;;;5461000;26;20262;-69
2024/04/13 07:22:16;;;;;;;2.93;1.70;;;23.80;53.70;;;;;;5462417;26;20533;-70
2024/04/13 07:24:42;;;;;;;1.57;1.40;;;23.80;53.70;;;;;;5462427;26;20448;-69
2024/04/13 07:27:08;;;;;;;2.03;1.73;;;23.80;53.70;;;;;;5462941;26;20231;-69
2024/04/13 07:29:33;;;;;;;2.03;1.50;;;23.80;53.70;;;;;;5464031;26;20235;-70
2024/04/13 07:31:59;;;;;;;2.53;1.67;;;23.80;54.30;;;;;;5463716;26;20726;-69
2024/04/13 07:34:24;;;;;;;2.03;1.40;;;23.80;53.70;;;;;;5463895;26;20274;-68
2024/04/13 07:36:50;;;;;;;2.03;1.83;;;23.80;53.70;;;;;;5462445;26;20223;-69
2024/04/13 07:39:15;;;;;;;2.33;1.50;;;23.80;53.70;;;;;;5462683;26;20223;-69
2024/04/13 07:41:41;;;;;;;2.23;1.67;;;23.80;53.70;;;;;;5462056;26;20235;-68
2024/04/13 07:44:07;;;;;;;1.77;1.50;;;23.80;53.70;;;;;;5461517;26;20807;-69
2024/04/13 07:46:33;;;;;;;2.10;1.67;;;23.80;53.70;;;;;;5461369;26;20285;-69
2024/04/13 07:48:59;;;;;;;2.67;1.90;;;23.80;53.70;;;;;;5461584;26;20223;-69
2024/04/13 07:51:25;;;;;;;2.53;1.50;;;23.80;53.70;;;;;;5461804;26;20543;-68
2024/04/13 07:53:51;;;;;;;1.37;1.10;;;23.80;53.70;;;;;;5461707;26;20547;-69
2024/04/13 07:56:16;;;;;;;1.90;1.70;;;23.80;53.70;;;;;;5462565;26;20293;-68
2024/04/13 07:58:42;;;;;;;3.17;1.60;;;23.80;53.70;;;;;;5456100;26;20259;-69
2024/04/13 08:01:08;;;;;;;1.80;1.57;;;23.80;53.70;;;;;;5461389;26;20239;-68
2024/04/13 08:03:33;;;;;;;1.83;1.73;;;23.80;53.70;;;;;;5461178;26;20278;-68
2024/04/13 08:05:59;;;;;;;2.80;1.40;;;23.80;53.70;;;;;;5460122;26;20242;-69
2024/04/13 08:08:26;;;;;;;2.13;1.77;;;23.80;53.70;;;;;;5461932;26;20724;-69
2024/04/13 08:10:51;;;;;;;1.77;1.60;;;23.80;53.70;;;;;;5460944;26;20257;-70
2024/04/13 08:13:17;;;;;;;2.10;1.50;;;23.80;53.70;;;;;;5459673;26;20863;-68
2024/04/13 08:15:43;;;;;;;2.13;1.60;;;23.80;53.70;;;;;;5458692;26;20265;-69
2024/04/13 08:18:09;;;;;;;2.13;1.70;;;23.80;53.80;;;;;;5443841;26;20574;-69
2024/04/13 08:20:34;;;;;;;2.97;1.53;;;23.80;53.70;;;;;;5423359;26;20723;-68
2024/04/13 08:23:01;;;;;;;3.60;1.63;;;23.80;53.80;;;;;;5423427;26;20560;-70
2024/04/13 08:25:28;;;;;;;1.87;1.40;;;23.80;53.80;;;;;;5417679;26;20232;-68
2024/04/13 08:27:54;;;;;;;2.57;1.80;;;23.80;53.80;;;;;;5417478;26;20466;-68
2024/04/13 08:30:20;;;;;;;3.07;1.60;;;23.80;53.80;;;;;;5418581;26;20845;-68
2024/04/13 08:32:48;;;;;;;3.30;2.17;;;23.80;53.80;;;;;;5420239;26;20450;-70
2024/04/13 08:35:13;;;;;;;2.17;1.90;;;23.80;53.80;;;;;;5423497;26;20228;-69
2024/04/13 08:37:39;;;;;;;2.87;2.10;;;23.80;53.80;;;;;;5423332;26;21098;-69
2024/04/13 08:40:05;;;;;;;5.47;1.87;;;23.80;53.80;;;;;;5422000;26;20228;-69
2024/04/13 08:42:34;;;;;;;2.20;1.50;;;23.80;53.70;;;;;;5422190;26;20271;-69
2024/04/13 08:45:00;;;;;;;1.60;1.40;;;23.80;53.80;;;;;;5423652;26;20995;-69
2024/04/13 08:47:27;;;;;;;4.73;1.67;;;23.80;53.70;;;;;;5422628;26;20450;-69
2024/04/13 08:49:58;;;;;;;4.60;1.80;;;23.80;53.80;;;;;;5421393;26;20457;-69
2024/04/13 08:52:25;;;;;;;3.63;1.90;;;23.80;53.70;;;;;;5419888;26;20482;-69
2024/04/13 08:54:51;;;;;;;2.43;1.57;;;23.80;53.70;;;;;;5420242;26;20886;-70
2024/04/13 08:57:25;;;;;;;3.13;2.40;;;23.80;53.70;;;;;;5419479;26;20502;-69
2024/04/13 08:59:52;;;;;;;3.00;1.50;;;23.80;53.70;;;;;;5418385;26;20258;-69
2024/04/13 09:02:22;;;;;;;3.90;2.40;;;23.80;53.70;;;;;;5420077;26;20482;-69
2024/04/13 09:04:52;;;;;;;3.20;2.13;;;23.80;53.80;;;;;;5419866;26;20458;-69
2024/04/13 09:07:20;;;;;;;2.30;2.10;;;23.80;53.70;;;;;;5419628;26;20498;-69
2024/04/13 09:09:53;;;;;;;3.00;2.00;;;23.80;53.80;;;;;;5419359;26;20455;-69
2024/04/13 09:12:19;;;;;;;2.20;1.57;;;23.80;53.80;;;;;;5419487;26;20980;-69
2024/04/13 09:14:44;;;;;;;3.17;1.97;;;23.80;53.80;;;;;;5420091;26;20497;-69
2024/04/13 09:17:10;;;;;;;2.07;1.70;;;23.80;53.80;;;;;;5419707;26;20224;-68
2024/04/13 09:19:36;;;;;;;2.97;1.97;;;23.80;53.80;;;;;;5419394;26;20225;-69
2024/04/13 09:22:02;;;;;;;3.40;2.27;;;23.80;53.80;;;;;;5417197;26;21029;-70
2024/04/13 09:24:39;;;;;;;2.80;2.20;;;23.80;53.70;;;;;;5419450;26;20255;-70
2024/04/13 09:27:06;;;;;;;2.10;1.87;;;23.80;53.70;;;;;;5419463;26;21090;-69
2024/04/13 09:29:31;;;;;;;2.47;1.57;;;23.80;53.80;;;;;;5419022;26;20451;-69
2024/04/13 09:31:58;;;;;;;2.80;1.83;;;23.80;53.80;;;;;;5418629;26;20541;-69
2024/04/13 09:34:24;;;;;;;2.87;1.73;;;23.80;53.80;;;;;;5418976;26;20221;-69
2024/04/13 09:36:49;;;;;;;2.30;1.83;;;23.80;53.80;;;;;;5418946;26;20505;-70
2024/04/13 09:39:22;;;;;;;1.93;1.73;;;23.80;53.80;;;;;;5419294;26;20227;-69
2024/04/13 09:41:48;;;;;;;3.00;1.60;;;23.80;53.80;;;;;;5418123;26;20344;-68
2024/04/13 09:44:34;;;;;;;2.50;1.93;;;23.80;53.80;;;;;;5419202;26;20457;-69
2024/04/13 09:46:59;;;;;;;3.10;1.73;;;23.80;53.80;;;;;;5418824;26;20446;-67
2024/04/13 09:49:25;;;;;;;3.07;2.00;;;23.80;53.80;;;;;;5418298;26;20500;-69
2024/04/13 09:51:51;;;;;;;2.30;1.90;;;23.80;53.80;;;;;;5419130;26;20229;-68
2024/04/13 09:54:16;;;;;;;1.90;1.77;;;23.80;53.80;;;;;;5418743;26;20232;-70
2024/04/13 09:56:48;;;;;;;2.60;2.10;;;23.80;53.80;;;;;;5420320;26;20271;-69
2024/04/13 09:59:17;;;;;;;2.57;1.80;;;23.80;53.80;;;;;;5417527;26;20232;-69
2024/04/13 10:01:43;;;;;;;2.97;1.53;;;23.80;53.80;;;;;;5417721;26;20474;-68
2024/04/13 10:04:09;;;;;;;2.90;1.60;;;23.80;53.80;;;;;;5418910;26;20527;-66
2024/04/13 10:06:37;;;;;;;2.43;1.80;;;23.80;53.80;;;;;;5419215;26;21270;-69
2024/04/13 10:09:06;;;;;;;2.90;2.40;;;23.80;53.80;;;;;;5417422;26;20566;-69
2024/04/13 10:11:38;;;;;;;2.67;1.80;;;23.80;53.80;;;;;;5416835;26;20470;-69
2024/04/13 10:14:06;;;;;;;2.20;1.57;;;23.80;53.90;;;;;;5417938;26;20530;-69
2024/04/13 10:16:32;;;;;;;1.60;1.40;;;23.90;53.90;;;;;;5418541;26;20454;-70
2024/04/13 10:18:59;;;;;;;4.00;1.70;;;23.80;53.80;;;;;;5418747;26;20796;-68
2024/04/13 10:21:25;;;;;;;2.37;1.70;;;23.80;53.90;;;;;;5419087;26;20567;-68
2024/04/13 10:23:55;;;;;;;2.53;1.70;;;23.90;53.90;;;;;;5420005;26;20454;-69
2024/04/13 10:26:28;;;;;;;2.07;1.87;;;23.90;53.90;;;;;;5420212;26;20269;-70
2024/04/13 10:28:57;;;;;;;3.30;1.80;;;23.90;53.90;;;;;;5419746;26;20510;-70
2024/04/13 10:31:27;;;;;;;2.70;1.90;;;23.90;53.90;;;;;;5419236;26;20478;-69
2024/04/13 10:33:53;;;;;;;2.47;1.70;;;23.90;53.90;;;;;;5419336;26;20514;-69
2024/04/13 10:36:33;;;;;;;2.33;1.50;;;23.90;53.90;;;;;;5418468;26;20511;-68
2024/04/13 10:39:02;;;;;;;2.20;1.80;;;23.90;53.90;;;;;;5417721;26;20453;-70
2024/04/13 10:41:36;;;;;;;2.00;1.57;;;23.90;53.90;;;;;;5419823;26;20507;-69
2024/04/13 10:44:03;;;;;;;1.70;1.50;;;23.90;53.90;;;;;;5417861;26;20515;-69
2024/04/13 10:46:29;;;;;;;1.70;1.50;;;23.90;53.90;;;;;;5418139;26;20905;-67
2024/04/13 10:48:55;;;;;;;2.37;1.50;;;23.90;53.90;;;;;;5418101;26;20454;-69
2024/04/13 10:51:22;;;;;;;1.97;1.50;;;23.90;53.90;;;;;;5417748;26;20224;-69
2024/04/13 10:53:48;;;;;;;2.30;1.90;;;23.90;53.90;;;;;;5416343;26;20506;-68
2024/04/13 10:56:14;;;;;;;1.73;1.63;;;23.90;53.90;;;;;;5417576;26;20799;-69
2024/04/13 10:58:40;;;;;;;1.70;1.43;;;23.90;53.90;;;;;;5417380;26;20510;-68
2024/04/13 11:01:06;;;;;;;3.00;2.00;;;23.90;53.90;;;;;;5417932;26;20336;-68
2024/04/13 11:03:32;;;;;;;2.50;1.80;;;23.90;53.90;;;;;;5418732;26;20224;-70
2024/04/13 11:05:59;;;;;;;1.87;1.50;;;23.90;53.90;;;;;;5418783;26;20545;-70
2024/04/13 11:08:25;;;;;;;1.60;1.50;;;23.90;53.90;;;;;;5418081;26;20453;-69
2024/04/13 11:10:58;;;;;;;3.10;1.90;;;23.90;53.90;;;;;;5419496;26;20477;-69
2024/04/13 11:13:25;;;;;;;1.90;1.70;;;23.90;53.90;;;;;;5416527;26;20453;-68
2024/04/13 11:15:51;;;;;;;3.10;2.20;;;23.90;53.90;;;;;;5418468;26;20446;-68
2024/04/13 11:18:17;;;;;;;1.60;1.50;;;23.90;53.90;;;;;;5417844;26;20504;-69
2024/04/13 11:20:47;;;;;;;1.60;1.50;;;23.90;53.90;;;;;;5417160;26;20236;-69
2024/04/13 11:23:14;;;;;;;1.73;1.63;;;23.90;53.90;;;;;;5416881;26;20240;-69
2024/04/13 11:25:40;;;;;;;3.40;2.23;;;23.90;53.90;;;;;;5417207;26;20508;-68
2024/04/13 11:28:05;;;;;;;1.97;1.70;;;23.90;53.90;;;;;;5417202;26;20462;-69
2024/04/13 11:30:31;;;;;;;3.00;1.57;;;23.90;53.90;;;;;;5416531;26;20264;-69
2024/04/13 11:32:59;;;;;;;1.97;1.63;;;23.90;53.90;;;;;;5414371;26;20229;-69
2024/04/13 11:35:24;;;;;;;1.83;1.40;;;23.90;53.90;;;;;;5416616;26;20844;-69
2024/04/13 11:37:55;;;;;;;1.83;1.60;;;23.90;53.90;;;;;;5417005;26;20442;-69
2024/04/13 11:40:20;;;;;;;2.07;1.57;;;23.90;53.90;;;;;;5416948;26;20258;-69
2024/04/13 11:42:48;;;;;;;1.50;1.40;;;23.90;53.90;;;;;;5417004;26;20849;-69
2024/04/13 11:45:14;;;;;;;1.93;1.70;;;23.90;53.90;;;;;;5416860;26;20230;-69
2024/04/13 11:47:40;;;;;;;1.73;1.53;;;23.90;53.90;;;;;;5416477;26;20469;-69
2024/04/13 11:50:06;;;;;;;2.40;1.47;;;23.90;53.90;;;;;;5417043;26;20224;-69
2024/04/13 11:52:32;;;;;;;2.03;1.57;;;23.90;54.50;;;;;;5416805;26;20447;-69
2024/04/13 11:54:57;;;;;;;2.03;1.83;;;23.90;53.90;;;;;;5416279;26;20542;-69
2024/04/13 11:57:23;;;;;;;2.00;1.50;;;23.90;53.90;;;;;;5415512;26;20256;-69
2024/04/13 11:59:48;;;;;;;1.70;1.50;;;23.90;53.90;;;;;;5417233;26;20302;-69
2024/04/13 12:02:14;;;;;;;2.20;1.57;;;23.90;53.90;;;;;;5414934;26;20249;-69
2024/04/13 12:04:40;;;;;;;2.10;1.70;;;23.90;53.90;;;;;;5417998;26;20224;-68
2024/04/13 12:07:11;;;;;;;2.33;2.10;;;23.90;53.90;;;;;;5419703;26;20270;-68
2024/04/13 12:09:38;;;;;;;2.17;1.73;;;24.00;54.00;;;;;;5419384;26;20756;-69
2024/04/13 12:12:06;;;;;;;2.07;1.87;;;23.90;53.90;;;;;;5419917;26;20855;-68
2024/04/13 12:14:32;;;;;;;2.03;1.83;;;23.90;54.00;;;;;;5419395;26;20449;-68
2024/04/13 12:16:58;;;;;;;2.27;2.00;;;23.90;54.00;;;;;;5419174;26;20803;-69
2024/04/13 12:19:23;;;;;;;2.20;1.90;;;23.90;54.00;;;;;;5419688;26;20458;-69
2024/04/13 12:21:49;;;;;;;1.50;1.40;;;23.90;54.00;;;;;;5419350;26;20743;-69
2024/04/13 12:24:14;;;;;;;2.53;1.80;;;23.90;54.00;;;;;;5419594;26;20267;-69
2024/04/13 12:26:40;;;;;;;2.20;1.87;;;23.90;54.00;;;;;;5419506;26;20228;-67
2024/04/13 12:29:06;;;;;;;1.87;1.70;;;23.90;54.00;;;;;;5419044;26;20240;-68
2024/04/13 12:31:31;;;;;;;2.40;1.57;;;23.90;54.00;;;;;;5418868;26;20270;-69
2024/04/13 12:33:57;;;;;;;2.37;1.60;;;23.90;54.00;;;;;;5418899;26;20224;-69
2024/04/13 12:36:23;;;;;;;1.90;1.70;;;23.90;54.00;;;;;;5419226;26;20224;-69
2024/04/13 12:38:48;;;;;;;1.83;1.70;;;23.90;54.00;;;;;;5418922;26;20217;-67
2024/04/13 12:41:14;;;;;;;2.70;1.53;;;23.90;54.00;;;;;;5419176;26;20263;-68
2024/04/13 12:43:40;;;;;;;2.20;2.00;;;23.90;54.00;;;;;;5419862;26;20236;-67